sensor_id;sensor_type;location;lat;lon;timestamp;P1;durP1;ratioP1;P2;durP2;ratioP2
40052;SDS011;25758;48.200;16.338;2023-03-23T09:39:34;11.98;;;6.43;;
40052;SDS011;25758;48.200;16.338;2023-03-23T09:47:02;16.92;;;7.10;;
40052;SDS011;25758;48.200;16.338;2023-03-23T09:49:56;16.52;;;6.43;;
40052;SDS011;25758;48.200;16.338;2023-03-23T09:52:31;10.63;;;5.90;;
40052;SDS011;25758;48.200;16.338;2023-03-23T09:55:17;13.98;;;5.82;;
40052;SDS011;25758;48.200;16.338;2023-03-23T10:02:43;8.93;;;6.15;;
40052;SDS011;25758;48.200;16.338;2023-03-23T10:05:26;14.77;;;5.32;;
40052;SDS011;25758;48.200;16.338;2023-03-23T10:07:57;10.52;;;5.68;;
40052;SDS011;25758;48.200;16.338;2023-03-23T10:13:18;8.68;;;5.35;;
40052;SDS011;25758;48.200;16.338;2023-03-23T10:15:53;15.18;;;5.63;;
40052;SDS011;25758;48.200;16.338;2023-03-23T10:18:24;11.90;;;5.63;;
40052;SDS011;25758;48.200;16.338;2023-03-23T10:20:58;6.85;;;5.15;;
40052;SDS011;25758;48.200;16.338;2023-03-23T10:23:38;13.57;;;5.47;;
40052;SDS011;25758;48.200;16.338;2023-03-23T10:32:14;12.32;;;6.00;;
40052;SDS011;25758;48.200;16.338;2023-03-23T10:34:55;15.88;;;5.68;;
40052;SDS011;25758;48.200;16.338;2023-03-23T10:37:30;14.57;;;6.10;;
40052;SDS011;25758;48.200;16.338;2023-03-23T10:40:03;11.20;;;5.78;;
40052;SDS011;25758;48.200;16.338;2023-03-23T10:42:36;14.93;;;6.32;;
40052;SDS011;25758;48.200;16.338;2023-03-23T10:45:14;8.70;;;5.63;;
40052;SDS011;25758;48.200;16.338;2023-03-23T10:47:58;17.92;;;6.32;;
40052;SDS011;25758;48.200;16.338;2023-03-23T10:50:30;13.88;;;6.30;;
40052;SDS011;25758;48.200;16.338;2023-03-23T10:52:59;11.38;;;5.85;;
40052;SDS011;25758;48.200;16.338;2023-03-23T10:55:35;15.15;;;6.72;;
40052;SDS011;25758;48.200;16.338;2023-03-23T10:58:11;7.47;;;5.43;;
40052;SDS011;25758;48.200;16.338;2023-03-23T11:00:47;14.23;;;5.65;;
40052;SDS011;25758;48.200;16.338;2023-03-23T11:05:42;11.02;;;6.13;;
40052;SDS011;25758;48.200;16.338;2023-03-23T11:08:12;9.48;;;5.22;;
40052;SDS011;25758;48.200;16.338;2023-03-23T11:10:48;9.07;;;6.15;;
40052;SDS011;25758;48.200;16.338;2023-03-23T11:13:15;12.55;;;5.70;;
40052;SDS011;25758;48.200;16.338;2023-03-23T11:15:43;10.68;;;6.72;;
40052;SDS011;25758;48.200;16.338;2023-03-23T11:18:21;11.70;;;6.20;;
40052;SDS011;25758;48.200;16.338;2023-03-23T11:20:51;19.48;;;6.00;;
40052;SDS011;25758;48.200;16.338;2023-03-23T11:25:57;9.20;;;4.15;;
40052;SDS011;25758;48.200;16.338;2023-03-23T11:28:35;13.60;;;4.97;;
40052;SDS011;25758;48.200;16.338;2023-03-23T11:31:03;12.27;;;5.18;;
40052;SDS011;25758;48.200;16.338;2023-03-23T11:34:04;13.18;;;4.78;;
40052;SDS011;25758;48.200;16.338;2023-03-23T11:36:29;10.38;;;4.30;;
40052;SDS011;25758;48.200;16.338;2023-03-23T11:39:00;7.22;;;4.63;;
40052;SDS011;25758;48.200;16.338;2023-03-23T11:41:31;7.65;;;4.70;;
40052;SDS011;25758;48.200;16.338;2023-03-23T11:44:02;9.90;;;4.55;;
40052;SDS011;25758;48.200;16.338;2023-03-23T11:46:37;11.02;;;4.65;;
40052;SDS011;25758;48.200;16.338;2023-03-23T11:49:25;7.78;;;4.15;;
40052;SDS011;25758;48.200;16.338;2023-03-23T11:54:47;10.70;;;3.35;;
40052;SDS011;25758;48.200;16.338;2023-03-23T11:57:20;5.93;;;3.58;;
40052;SDS011;25758;48.200;16.338;2023-03-23T11:59:46;9.32;;;4.15;;
40052;SDS011;25758;48.200;16.338;2023-03-23T12:02:19;5.63;;;4.00;;
40052;SDS011;25758;48.200;16.338;2023-03-23T12:07:49;8.25;;;3.97;;
40052;SDS011;25758;48.200;16.338;2023-03-23T12:10:27;15.80;;;4.67;;
40052;SDS011;25758;48.200;16.338;2023-03-23T12:23:15;8.90;;;3.58;;
40052;SDS011;25758;48.200;16.338;2023-03-23T12:25:56;10.65;;;4.15;;
40052;SDS011;25758;48.200;16.338;2023-03-23T12:41:23;10.60;;;4.45;;
40052;SDS011;25758;48.200;16.338;2023-03-23T12:44:03;12.87;;;4.47;;
40052;SDS011;25758;48.200;16.338;2023-03-23T12:49:21;15.77;;;4.35;;
40052;SDS011;25758;48.200;16.338;2023-03-23T12:52:00;10.52;;;3.92;;
40052;SDS011;25758;48.200;16.338;2023-03-23T12:54:38;14.38;;;4.38;;
40052;SDS011;25758;48.200;16.338;2023-03-23T12:57:15;17.08;;;4.45;;
40052;SDS011;25758;48.200;16.338;2023-03-23T13:00:06;17.17;;;4.20;;
40052;SDS011;25758;48.200;16.338;2023-03-23T13:02:39;11.52;;;3.60;;
40052;SDS011;25758;48.200;16.338;2023-03-23T13:07:43;10.15;;;4.03;;
40052;SDS011;25758;48.200;16.338;2023-03-23T13:12:40;6.85;;;4.00;;
40052;SDS011;25758;48.200;16.338;2023-03-23T13:23:09;7.32;;;2.80;;
40052;SDS011;25758;48.200;16.338;2023-03-23T13:28:29;10.60;;;2.72;;
40052;SDS011;25758;48.200;16.338;2023-03-23T13:30:59;7.43;;;2.65;;
40052;SDS011;25758;48.200;16.338;2023-03-23T13:33:28;6.90;;;2.50;;
40052;SDS011;25758;48.200;16.338;2023-03-23T13:36:03;9.35;;;2.75;;
40052;SDS011;25758;48.200;16.338;2023-03-23T13:38:34;4.95;;;3.00;;
40052;SDS011;25758;48.200;16.338;2023-03-23T13:41:07;3.60;;;2.10;;
40052;SDS011;25758;48.200;16.338;2023-03-23T13:43:35;5.38;;;2.00;;
40052;SDS011;25758;48.200;16.338;2023-03-23T13:46:13;4.45;;;1.80;;
40052;SDS011;25758;48.200;16.338;2023-03-23T13:49:02;9.30;;;2.40;;
40052;SDS011;25758;48.200;16.338;2023-03-23T13:51:34;7.72;;;1.83;;
40052;SDS011;25758;48.200;16.338;2023-03-23T13:54:14;7.78;;;1.50;;
40052;SDS011;25758;48.200;16.338;2023-03-23T13:56:42;2.78;;;1.80;;
40052;SDS011;25758;48.200;16.338;2023-03-23T14:01:46;9.40;;;3.30;;
40052;SDS011;25758;48.200;16.338;2023-03-23T14:06:51;4.97;;;1.80;;
40052;SDS011;25758;48.200;16.338;2023-03-23T14:09:33;5.90;;;2.03;;
40052;SDS011;25758;48.200;16.338;2023-03-23T14:17:40;4.45;;;1.85;;
40052;SDS011;25758;48.200;16.338;2023-03-23T14:22:53;5.68;;;3.90;;
40052;SDS011;25758;48.200;16.338;2023-03-23T14:25:21;5.50;;;2.58;;
40052;SDS011;25758;48.200;16.338;2023-03-23T14:27:53;12.55;;;3.50;;
40052;SDS011;25758;48.200;16.338;2023-03-23T14:30:34;8.48;;;3.33;;
40052;SDS011;25758;48.200;16.338;2023-03-23T14:33:04;13.45;;;5.30;;
40052;SDS011;25758;48.200;16.338;2023-03-23T14:38:13;9.40;;;3.67;;
40052;SDS011;25758;48.200;16.338;2023-03-23T14:40:49;5.72;;;3.30;;
40052;SDS011;25758;48.200;16.338;2023-03-23T14:43:19;7.78;;;2.53;;
40052;SDS011;25758;48.200;16.338;2023-03-23T14:45:56;8.07;;;2.85;;
40052;SDS011;25758;48.200;16.338;2023-03-23T14:48:24;13.73;;;3.03;;
40052;SDS011;25758;48.200;16.338;2023-03-23T14:50:56;4.40;;;2.13;;
40052;SDS011;25758;48.200;16.338;2023-03-23T14:53:31;3.75;;;1.90;;
40052;SDS011;25758;48.200;16.338;2023-03-23T14:56:04;5.45;;;1.60;;
40052;SDS011;25758;48.200;16.338;2023-03-23T14:58:32;4.30;;;1.63;;
40052;SDS011;25758;48.200;16.338;2023-03-23T15:01:06;5.80;;;1.73;;
40052;SDS011;25758;48.200;16.338;2023-03-23T15:03:35;4.82;;;1.83;;
40052;SDS011;25758;48.200;16.338;2023-03-23T15:06:15;6.47;;;1.63;;
40052;SDS011;25758;48.200;16.338;2023-03-23T15:08:52;3.95;;;1.40;;
40052;SDS011;25758;48.200;16.338;2023-03-23T15:11:24;2.28;;;1.60;;
40052;SDS011;25758;48.200;16.338;2023-03-23T15:13:55;3.50;;;1.20;;
40052;SDS011;25758;48.200;16.338;2023-03-23T15:16:25;7.88;;;1.77;;
40052;SDS011;25758;48.200;16.338;2023-03-23T15:18:59;6.68;;;1.10;;
40052;SDS011;25758;48.200;16.338;2023-03-23T15:21:46;4.47;;;1.42;;
40052;SDS011;25758;48.200;16.338;2023-03-23T15:24:34;3.55;;;1.30;;
40052;SDS011;25758;48.200;16.338;2023-03-23T15:29:47;8.73;;;1.23;;
40052;SDS011;25758;48.200;16.338;2023-03-23T15:32:30;3.22;;;2.03;;
40052;SDS011;25758;48.200;16.338;2023-03-23T15:35:15;9.70;;;4.90;;
40052;SDS011;25758;48.200;16.338;2023-03-23T15:37:44;6.00;;;1.80;;
40052;SDS011;25758;48.200;16.338;2023-03-23T15:40:14;10.90;;;1.85;;
40052;SDS011;25758;48.200;16.338;2023-03-23T15:42:49;5.10;;;1.88;;
40052;SDS011;25758;48.200;16.338;2023-03-23T15:45:29;7.45;;;1.90;;
40052;SDS011;25758;48.200;16.338;2023-03-23T15:55:44;5.75;;;2.25;;
40052;SDS011;25758;48.200;16.338;2023-03-23T15:58:14;4.07;;;2.20;;
